Terminal Aerodrome Forecast
Issued by NWS

Home | Current Version | Previous Version | Text Only | Print | Product List | Glossary On
Versions: 1 2 3 4 5 6 7 8 9 10 11 12 13 14 15 16 17 18 19 20 21 22 23 24 25 26 27
000
FTUS44 KMAF 220500
TAFINK
TAF
KINK 220532Z 2206/2306 09010KT P6SM -SHRA OVC060
     FM221000 09009KT P6SM OVC015
      TEMPO 2210/2214 3SM -RA BR OVC005=

USA.gov is the U.S. government's official web portal to all federal, state and local government web resources and services.